Terminal Aerodrome Forecast
Issued by NWS

Home | Current Version | Previous Version | Text Only | Print | Product List | Glossary On
Versions: 1 2 3 4 5 6 7 8 9 10 11 12 13 14 15 16 17 18 19 20 21 22
000
FTUS43 KTOP 260300 AAA
TAFMHK
TAF AMD
KMHK 260301Z 2603/2624 03012KT P6SM OVC012
     FM260400 06008KT 6SM BR OVC007
     FM261600 07011KT P6SM BKN020
     FM262100 08012G18KT P6SM SCT030=

USA.gov is the U.S. government's official web portal to all federal, state and local government web resources and services.